sensor_id;sensor_type;location;lat;lon;timestamp;temperature;humidity
4578;DHT22;2301;47.354;8.528;2023-04-03T00:01:47;15.20;81.50
4578;DHT22;2301;47.354;8.528;2023-04-03T00:04:14;15.10;80.50
4578;DHT22;2301;47.354;8.528;2023-04-03T00:06:41;15.10;80.30
4578;DHT22;2301;47.354;8.528;2023-04-03T00:09:10;15.00;80.20
4578;DHT22;2301;47.354;8.528;2023-04-03T00:11:37;15.00;81.00
4578;DHT22;2301;47.354;8.528;2023-04-03T00:14:07;15.00;81.20
4578;DHT22;2301;47.354;8.528;2023-04-03T00:16:34;15.00;80.60
4578;DHT22;2301;47.354;8.528;2023-04-03T00:19:01;14.90;79.80
4578;DHT22;2301;47.354;8.528;2023-04-03T00:21:28;14.80;78.50
4578;DHT22;2301;47.354;8.528;2023-04-03T00:23:55;14.80;79.20
4578;DHT22;2301;47.354;8.528;2023-04-03T00:26:23;14.70;78.90
4578;DHT22;2301;47.354;8.528;2023-04-03T00:28:50;14.70;79.70
4578;DHT22;2301;47.354;8.528;2023-04-03T00:31:17;14.70;79.70
4578;DHT22;2301;47.354;8.528;2023-04-03T00:33:44;14.70;79.20
4578;DHT22;2301;47.354;8.528;2023-04-03T00:36:12;14.70;78.80
4578;DHT22;2301;47.354;8.528;2023-04-03T00:38:40;14.70;78.80
4578;DHT22;2301;47.354;8.528;2023-04-03T00:41:07;14.60;78.40
4578;DHT22;2301;47.354;8.528;2023-04-03T00:43:35;14.70;78.80
4578;DHT22;2301;47.354;8.528;2023-04-03T00:46:03;14.70;77.80
4578;DHT22;2301;47.354;8.528;2023-04-03T00:48:32;14.70;77.90
4578;DHT22;2301;47.354;8.528;2023-04-03T00:51:02;14.70;78.40
4578;DHT22;2301;47.354;8.528;2023-04-03T00:53:32;14.70;76.50
4578;DHT22;2301;47.354;8.528;2023-04-03T00:56:00;14.70;76.90
4578;DHT22;2301;47.354;8.528;2023-04-03T00:58:33;14.60;76.50
4578;DHT22;2301;47.354;8.528;2023-04-03T01:01:05;14.50;76.60
4578;DHT22;2301;47.354;8.528;2023-04-03T01:03:34;14.50;77.50
4578;DHT22;2301;47.354;8.528;2023-04-03T01:06:01;14.60;77.50
4578;DHT22;2301;47.354;8.528;2023-04-03T01:08:29;14.50;75.80
4578;DHT22;2301;47.354;8.528;2023-04-03T01:10:56;14.40;75.70
4578;DHT22;2301;47.354;8.528;2023-04-03T01:13:25;14.40;76.30
4578;DHT22;2301;47.354;8.528;2023-04-03T01:15:52;14.20;73.70
4578;DHT22;2301;47.354;8.528;2023-04-03T01:18:21;14.20;75.70
4578;DHT22;2301;47.354;8.528;2023-04-03T01:24:16;14.30;76.10
4578;DHT22;2301;47.354;8.528;2023-04-03T01:26:48;14.30;75.70
4578;DHT22;2301;47.354;8.528;2023-04-03T01:29:16;14.10;73.00
4578;DHT22;2301;47.354;8.528;2023-04-03T01:31:50;13.90;72.80
4578;DHT22;2301;47.354;8.528;2023-04-03T01:34:17;13.90;75.80
4578;DHT22;2301;47.354;8.528;2023-04-03T01:36:45;13.90;76.30
4578;DHT22;2301;47.354;8.528;2023-04-03T01:39:12;13.90;76.10
4578;DHT22;2301;47.354;8.528;2023-04-03T01:41:39;13.90;75.10
4578;DHT22;2301;47.354;8.528;2023-04-03T01:44:06;14.00;75.70
4578;DHT22;2301;47.354;8.528;2023-04-03T01:46:33;14.00;75.50
4578;DHT22;2301;47.354;8.528;2023-04-03T01:49:02;14.00;74.50
4578;DHT22;2301;47.354;8.528;2023-04-03T01:51:31;14.00;75.50
4578;DHT22;2301;47.354;8.528;2023-04-03T01:54:02;14.00;74.90
4578;DHT22;2301;47.354;8.528;2023-04-03T01:56:29;14.00;75.10
4578;DHT22;2301;47.354;8.528;2023-04-03T01:58:59;14.00;74.40
4578;DHT22;2301;47.354;8.528;2023-04-03T02:01:26;13.90;73.50
4578;DHT22;2301;47.354;8.528;2023-04-03T02:03:53;13.80;74.10
4578;DHT22;2301;47.354;8.528;2023-04-03T02:06:21;13.70;72.80
4578;DHT22;2301;47.354;8.528;2023-04-03T02:08:48;13.70;73.70
4578;DHT22;2301;47.354;8.528;2023-04-03T02:11:15;13.70;73.70
4578;DHT22;2301;47.354;8.528;2023-04-03T02:13:42;13.60;72.90
4578;DHT22;2301;47.354;8.528;2023-04-03T02:16:10;13.60;74.40
4578;DHT22;2301;47.354;8.528;2023-04-03T02:18:38;13.70;74.70
4578;DHT22;2301;47.354;8.528;2023-04-03T02:21:06;13.80;74.90
4578;DHT22;2301;47.354;8.528;2023-04-03T02:23:34;13.80;73.20
4578;DHT22;2301;47.354;8.528;2023-04-03T02:26:04;13.80;73.50
4578;DHT22;2301;47.354;8.528;2023-04-03T02:28:31;13.90;73.70
4578;DHT22;2301;47.354;8.528;2023-04-03T02:30:59;13.90;73.50
4578;DHT22;2301;47.354;8.528;2023-04-03T02:33:25;13.90;73.10
4578;DHT22;2301;47.354;8.528;2023-04-03T02:35:53;13.60;69.40
4578;DHT22;2301;47.354;8.528;2023-04-03T02:38:20;13.50;73.00
4578;DHT22;2301;47.354;8.528;2023-04-03T02:40:49;13.60;73.10
4578;DHT22;2301;47.354;8.528;2023-04-03T02:43:16;13.60;73.80
4578;DHT22;2301;47.354;8.528;2023-04-03T02:45:44;13.70;72.70
4578;DHT22;2301;47.354;8.528;2023-04-03T02:48:10;13.80;72.30
4578;DHT22;2301;47.354;8.528;2023-04-03T02:50:38;13.80;71.60
4578;DHT22;2301;47.354;8.528;2023-04-03T02:53:05;13.70;72.40
4578;DHT22;2301;47.354;8.528;2023-04-03T02:55:32;13.70;71.90
4578;DHT22;2301;47.354;8.528;2023-04-03T02:58:01;13.70;71.70
4578;DHT22;2301;47.354;8.528;2023-04-03T03:00:29;13.70;72.00
4578;DHT22;2301;47.354;8.528;2023-04-03T03:02:56;13.70;72.00
4578;DHT22;2301;47.354;8.528;2023-04-03T03:05:23;13.60;70.20
4578;DHT22;2301;47.354;8.528;2023-04-03T03:07:50;13.70;71.80
4578;DHT22;2301;47.354;8.528;2023-04-03T03:10:17;13.60;71.30
4578;DHT22;2301;47.354;8.528;2023-04-03T03:12:44;13.60;70.60
4578;DHT22;2301;47.354;8.528;2023-04-03T03:15:13;13.70;71.80
4578;DHT22;2301;47.354;8.528;2023-04-03T03:17:41;13.60;70.70
4578;DHT22;2301;47.354;8.528;2023-04-03T03:20:08;13.70;71.00
4578;DHT22;2301;47.354;8.528;2023-04-03T03:22:36;13.50;69.80
4578;DHT22;2301;47.354;8.528;2023-04-03T03:25:04;13.60;70.80
4578;DHT22;2301;47.354;8.528;2023-04-03T03:27:31;13.60;71.50
4578;DHT22;2301;47.354;8.528;2023-04-03T03:29:58;13.60;69.70
4578;DHT22;2301;47.354;8.528;2023-04-03T03:32:26;13.50;68.40
4578;DHT22;2301;47.354;8.528;2023-04-03T03:34:53;13.50;68.80
4578;DHT22;2301;47.354;8.528;2023-04-03T03:37:20;13.50;67.90
4578;DHT22;2301;47.354;8.528;2023-04-03T03:39:47;13.50;69.10
4578;DHT22;2301;47.354;8.528;2023-04-03T03:42:14;13.40;67.80
4578;DHT22;2301;47.354;8.528;2023-04-03T03:44:41;13.40;68.10
4578;DHT22;2301;47.354;8.528;2023-04-03T03:47:08;13.30;68.50
4578;DHT22;2301;47.354;8.528;2023-04-03T03:49:38;13.40;68.40
4578;DHT22;2301;47.354;8.528;2023-04-03T03:52:04;13.30;67.10
4578;DHT22;2301;47.354;8.528;2023-04-03T03:54:31;13.30;67.30
4578;DHT22;2301;47.354;8.528;2023-04-03T03:56:59;13.30;67.80
4578;DHT22;2301;47.354;8.528;2023-04-03T03:59:26;13.30;66.80
4578;DHT22;2301;47.354;8.528;2023-04-03T04:01:52;13.30;67.60
4578;DHT22;2301;47.354;8.528;2023-04-03T04:04:20;13.40;67.80
4578;DHT22;2301;47.354;8.528;2023-04-03T04:06:49;13.40;67.30
4578;DHT22;2301;47.354;8.528;2023-04-03T04:09:16;13.40;67.60
4578;DHT22;2301;47.354;8.528;2023-04-03T04:11:43;13.40;67.10
4578;DHT22;2301;47.354;8.528;2023-04-03T04:14:10;13.30;65.60
4578;DHT22;2301;47.354;8.528;2023-04-03T04:16:38;13.30;67.10
4578;DHT22;2301;47.354;8.528;2023-04-03T04:19:05;13.30;65.80
4578;DHT22;2301;47.354;8.528;2023-04-03T04:21:32;13.20;65.40
4578;DHT22;2301;47.354;8.528;2023-04-03T04:24:00;13.20;66.80
4578;DHT22;2301;47.354;8.528;2023-04-03T04:26:27;13.20;66.30
4578;DHT22;2301;47.354;8.528;2023-04-03T04:28:54;13.30;67.60
4578;DHT22;2301;47.354;8.528;2023-04-03T04:31:21;13.10;61.50
4578;DHT22;2301;47.354;8.528;2023-04-03T04:33:48;12.70;58.00
4578;DHT22;2301;47.354;8.528;2023-04-03T04:36:15;12.20;56.50
4578;DHT22;2301;47.354;8.528;2023-04-03T04:38:43;11.90;56.70
4578;DHT22;2301;47.354;8.528;2023-04-03T04:41:12;11.60;57.00
4578;DHT22;2301;47.354;8.528;2023-04-03T04:43:39;11.40;57.60
4578;DHT22;2301;47.354;8.528;2023-04-03T04:46:07;11.10;57.60
4578;DHT22;2301;47.354;8.528;2023-04-03T04:48:36;10.90;58.10
4578;DHT22;2301;47.354;8.528;2023-04-03T04:51:04;10.60;58.20
4578;DHT22;2301;47.354;8.528;2023-04-03T04:53:31;10.50;58.20
4578;DHT22;2301;47.354;8.528;2023-04-03T04:55:59;10.30;58.30
4578;DHT22;2301;47.354;8.528;2023-04-03T04:58:27;10.20;58.80
4578;DHT22;2301;47.354;8.528;2023-04-03T05:00:58;10.00;59.00
4578;DHT22;2301;47.354;8.528;2023-04-03T05:03:26;9.90;60.20
4578;DHT22;2301;47.354;8.528;2023-04-03T05:05:53;9.70;60.20
4578;DHT22;2301;47.354;8.528;2023-04-03T05:08:20;9.50;60.10
4578;DHT22;2301;47.354;8.528;2023-04-03T05:10:48;9.40;60.70
4578;DHT22;2301;47.354;8.528;2023-04-03T05:13:15;9.30;59.90
4578;DHT22;2301;47.354;8.528;2023-04-03T05:15:44;9.20;60.00
4578;DHT22;2301;47.354;8.528;2023-04-03T05:18:12;9.10;59.80
4578;DHT22;2301;47.354;8.528;2023-04-03T05:20:39;9.00;60.10
4578;DHT22;2301;47.354;8.528;2023-04-03T05:23:06;8.90;60.30
4578;DHT22;2301;47.354;8.528;2023-04-03T05:25:33;8.90;60.50
4578;DHT22;2301;47.354;8.528;2023-04-03T05:28:00;8.90;60.90
4578;DHT22;2301;47.354;8.528;2023-04-03T05:30:27;8.80;61.00
4578;DHT22;2301;47.354;8.528;2023-04-03T05:32:55;8.80;60.80
4578;DHT22;2301;47.354;8.528;2023-04-03T05:35:22;8.70;61.10
4578;DHT22;2301;47.354;8.528;2023-04-03T05:37:49;8.70;61.70
4578;DHT22;2301;47.354;8.528;2023-04-03T05:40:16;8.60;61.30
4578;DHT22;2301;47.354;8.528;2023-04-03T05:42:44;8.50;61.40
4578;DHT22;2301;47.354;8.528;2023-04-03T05:45:11;8.50;61.90
4578;DHT22;2301;47.354;8.528;2023-04-03T05:47:38;8.50;62.30
4578;DHT22;2301;47.354;8.528;2023-04-03T05:50:07;8.50;62.10
4578;DHT22;2301;47.354;8.528;2023-04-03T05:52:37;8.50;62.20
4578;DHT22;2301;47.354;8.528;2023-04-03T05:55:05;8.40;62.20
4578;DHT22;2301;47.354;8.528;2023-04-03T05:57:32;8.30;61.50
4578;DHT22;2301;47.354;8.528;2023-04-03T05:59:59;8.30;61.00
4578;DHT22;2301;47.354;8.528;2023-04-03T06:02:26;8.20;59.80
4578;DHT22;2301;47.354;8.528;2023-04-03T06:04:52;8.20;59.80
4578;DHT22;2301;47.354;8.528;2023-04-03T06:07:23;8.30;59.60
4578;DHT22;2301;47.354;8.528;2023-04-03T06:09:55;8.20;59.40
4578;DHT22;2301;47.354;8.528;2023-04-03T06:12:23;8.20;59.70
4578;DHT22;2301;47.354;8.528;2023-04-03T06:14:50;8.20;59.60
4578;DHT22;2301;47.354;8.528;2023-04-03T06:17:17;8.10;59.50
4578;DHT22;2301;47.354;8.528;2023-04-03T06:19:45;8.10;59.50
4578;DHT22;2301;47.354;8.528;2023-04-03T06:22:12;8.10;59.20
4578;DHT22;2301;47.354;8.528;2023-04-03T06:24:41;8.10;59.10
4578;DHT22;2301;47.354;8.528;2023-04-03T06:27:10;8.20;59.40
4578;DHT22;2301;47.354;8.528;2023-04-03T06:29:37;8.10;59.40
4578;DHT22;2301;47.354;8.528;2023-04-03T06:32:05;8.00;58.50
4578;DHT22;2301;47.354;8.528;2023-04-03T06:34:35;8.00;63.20
4578;DHT22;2301;47.354;8.528;2023-04-03T06:37:03;8.50;76.40
4578;DHT22;2301;47.354;8.528;2023-04-03T06:39:30;8.50;66.10
4578;DHT22;2301;47.354;8.528;2023-04-03T06:41:59;8.50;63.40
4578;DHT22;2301;47.354;8.528;2023-04-03T06:44:26;8.40;61.20
4578;DHT22;2301;47.354;8.528;2023-04-03T06:46:53;8.30;60.30
4578;DHT22;2301;47.354;8.528;2023-04-03T06:49:20;8.20;60.00
4578;DHT22;2301;47.354;8.528;2023-04-03T06:51:47;8.00;58.90
4578;DHT22;2301;47.354;8.528;2023-04-03T06:54:14;8.00;59.60
4578;DHT22;2301;47.354;8.528;2023-04-03T06:56:41;8.10;59.90
4578;DHT22;2301;47.354;8.528;2023-04-03T06:59:12;8.00;59.70
4578;DHT22;2301;47.354;8.528;2023-04-03T07:01:40;8.10;59.90
4578;DHT22;2301;47.354;8.528;2023-04-03T07:04:07;8.10;59.80
4578;DHT22;2301;47.354;8.528;2023-04-03T07:06:35;8.10;59.70
4578;DHT22;2301;47.354;8.528;2023-04-03T07:09:03;8.10;59.90
4578;DHT22;2301;47.354;8.528;2023-04-03T07:11:30;8.10;59.50
4578;DHT22;2301;47.354;8.528;2023-04-03T07:13:57;8.20;59.70
4578;DHT22;2301;47.354;8.528;2023-04-03T07:16:26;8.20;59.90
4578;DHT22;2301;47.354;8.528;2023-04-03T07:18:53;8.10;59.30
4578;DHT22;2301;47.354;8.528;2023-04-03T07:21:19;8.10;58.90
4578;DHT22;2301;47.354;8.528;2023-04-03T07:23:46;8.10;58.80
4578;DHT22;2301;47.354;8.528;2023-04-03T07:26:13;8.10;59.00
4578;DHT22;2301;47.354;8.528;2023-04-03T07:28:42;8.10;58.80
4578;DHT22;2301;47.354;8.528;2023-04-03T07:31:16;8.10;58.80
4578;DHT22;2301;47.354;8.528;2023-04-03T07:33:47;8.10;58.60
4578;DHT22;2301;47.354;8.528;2023-04-03T07:36:17;8.10;58.40
4578;DHT22;2301;47.354;8.528;2023-04-03T07:38:44;8.10;58.70
4578;DHT22;2301;47.354;8.528;2023-04-03T07:41:13;8.00;58.70
4578;DHT22;2301;47.354;8.528;2023-04-03T07:43:41;8.10;58.30
4578;DHT22;2301;47.354;8.528;2023-04-03T07:46:08;8.10;58.80
4578;DHT22;2301;47.354;8.528;2023-04-03T07:48:36;8.10;59.00
4578;DHT22;2301;47.354;8.528;2023-04-03T07:51:07;8.10;58.90
4578;DHT22;2301;47.354;8.528;2023-04-03T07:53:34;8.10;58.40
4578;DHT22;2301;47.354;8.528;2023-04-03T07:56:01;8.90;83.70
4578;DHT22;2301;47.354;8.528;2023-04-03T07:58:28;9.80;88.70
4578;DHT22;2301;47.354;8.528;2023-04-03T08:00:56;10.10;76.00
4578;DHT22;2301;47.354;8.528;2023-04-03T08:03:22;10.10;72.40
4578;DHT22;2301;47.354;8.528;2023-04-03T08:05:49;10.20;72.30
4578;DHT22;2301;47.354;8.528;2023-04-03T08:08:20;10.20;71.00
4578;DHT22;2301;47.354;8.528;2023-04-03T08:10:49;10.10;70.20
4578;DHT22;2301;47.354;8.528;2023-04-03T08:13:16;10.20;69.40
4578;DHT22;2301;47.354;8.528;2023-04-03T08:15:43;10.20;71.10
4578;DHT22;2301;47.354;8.528;2023-04-03T08:18:10;10.20;68.10
4578;DHT22;2301;47.354;8.528;2023-04-03T08:20:38;10.20;64.60
4578;DHT22;2301;47.354;8.528;2023-04-03T08:23:09;10.20;66.50
4578;DHT22;2301;47.354;8.528;2023-04-03T08:25:40;10.20;67.30
4578;DHT22;2301;47.354;8.528;2023-04-03T08:28:07;10.20;67.20
4578;DHT22;2301;47.354;8.528;2023-04-03T08:30:34;10.20;66.00
4578;DHT22;2301;47.354;8.528;2023-04-03T08:33:01;10.20;63.30
4578;DHT22;2301;47.354;8.528;2023-04-03T08:35:29;10.10;61.50
4578;DHT22;2301;47.354;8.528;2023-04-03T08:37:56;10.10;62.30
4578;DHT22;2301;47.354;8.528;2023-04-03T08:40:23;10.10;63.50
4578;DHT22;2301;47.354;8.528;2023-04-03T08:43:01;10.10;61.70
4578;DHT22;2301;47.354;8.528;2023-04-03T08:45:40;10.10;68.20
4578;DHT22;2301;47.354;8.528;2023-04-03T08:48:14;10.10;63.80
4578;DHT22;2301;47.354;8.528;2023-04-03T08:50:44;10.00;63.00
4578;DHT22;2301;47.354;8.528;2023-04-03T08:53:15;9.90;59.40
4578;DHT22;2301;47.354;8.528;2023-04-03T08:55:45;9.80;58.00
4578;DHT22;2301;47.354;8.528;2023-04-03T08:58:16;9.60;56.90
4578;DHT22;2301;47.354;8.528;2023-04-03T09:00:47;9.50;56.70
4578;DHT22;2301;47.354;8.528;2023-04-03T09:03:17;9.50;56.60
4578;DHT22;2301;47.354;8.528;2023-04-03T09:05:48;9.40;56.70
4578;DHT22;2301;47.354;8.528;2023-04-03T09:08:23;9.40;56.80
4578;DHT22;2301;47.354;8.528;2023-04-03T09:11:00;9.30;56.30
4578;DHT22;2301;47.354;8.528;2023-04-03T09:13:38;9.30;56.60
4578;DHT22;2301;47.354;8.528;2023-04-03T09:16:17;9.20;56.10
4578;DHT22;2301;47.354;8.528;2023-04-03T09:18:52;9.10;55.90
4578;DHT22;2301;47.354;8.528;2023-04-03T09:21:23;9.10;56.50
4578;DHT22;2301;47.354;8.528;2023-04-03T09:23:54;9.10;56.60
4578;DHT22;2301;47.354;8.528;2023-04-03T09:26:25;9.10;56.70
4578;DHT22;2301;47.354;8.528;2023-04-03T09:29:00;9.00;56.60
4578;DHT22;2301;47.354;8.528;2023-04-03T09:31:35;9.00;56.70
4578;DHT22;2301;47.354;8.528;2023-04-03T09:34:06;9.00;56.70
4578;DHT22;2301;47.354;8.528;2023-04-03T09:36:42;9.10;56.60
4578;DHT22;2301;47.354;8.528;2023-04-03T09:39:12;9.00;56.00
4578;DHT22;2301;47.354;8.528;2023-04-03T09:41:40;9.00;56.20
4578;DHT22;2301;47.354;8.528;2023-04-03T09:44:21;9.00;56.10
4578;DHT22;2301;47.354;8.528;2023-04-03T09:46:49;9.00;56.40
4578;DHT22;2301;47.354;8.528;2023-04-03T09:49:17;9.00;56.10
4578;DHT22;2301;47.354;8.528;2023-04-03T09:51:45;9.00;56.00
4578;DHT22;2301;47.354;8.528;2023-04-03T09:54:34;8.90;55.50
4578;DHT22;2301;47.354;8.528;2023-04-03T09:57:07;8.90;55.90
4578;DHT22;2301;47.354;8.528;2023-04-03T09:59:38;9.00;56.50
4578;DHT22;2301;47.354;8.528;2023-04-03T10:02:23;8.90;56.20
4578;DHT22;2301;47.354;8.528;2023-04-03T10:04:51;9.10;56.40
4578;DHT22;2301;47.354;8.528;2023-04-03T10:07:30;9.10;56.20
4578;DHT22;2301;47.354;8.528;2023-04-03T10:09:58;9.10;56.00
4578;DHT22;2301;47.354;8.528;2023-04-03T10:12:27;9.10;56.20
4578;DHT22;2301;47.354;8.528;2023-04-03T10:14:56;9.20;56.30
4578;DHT22;2301;47.354;8.528;2023-04-03T10:17:35;9.20;56.10
4578;DHT22;2301;47.354;8.528;2023-04-03T10:20:10;9.20;55.90
4578;DHT22;2301;47.354;8.528;2023-04-03T10:22:44;9.10;55.90
4578;DHT22;2301;47.354;8.528;2023-04-03T10:25:20;9.10;56.00
4578;DHT22;2301;47.354;8.528;2023-04-03T10:27:53;9.10;55.90
4578;DHT22;2301;47.354;8.528;2023-04-03T10:30:40;9.10;56.10
4578;DHT22;2301;47.354;8.528;2023-04-03T10:33:20;9.20;56.50
4578;DHT22;2301;47.354;8.528;2023-04-03T10:36:02;9.30;56.50
4578;DHT22;2301;47.354;8.528;2023-04-03T10:38:34;9.30;56.80
4578;DHT22;2301;47.354;8.528;2023-04-03T10:41:05;9.40;56.80
4578;DHT22;2301;47.354;8.528;2023-04-03T10:43:39;9.40;56.60
4578;DHT22;2301;47.354;8.528;2023-04-03T10:46:12;9.40;55.80
4578;DHT22;2301;47.354;8.528;2023-04-03T10:48:55;9.40;56.20
4578;DHT22;2301;47.354;8.528;2023-04-03T10:51:30;9.30;56.50
4578;DHT22;2301;47.354;8.528;2023-04-03T10:54:07;9.30;56.80
4578;DHT22;2301;47.354;8.528;2023-04-03T10:56:38;9.30;57.00
4578;DHT22;2301;47.354;8.528;2023-04-03T10:59:17;9.30;57.10
4578;DHT22;2301;47.354;8.528;2023-04-03T11:01:49;9.30;57.20
4578;DHT22;2301;47.354;8.528;2023-04-03T11:04:19;9.40;57.50
4578;DHT22;2301;47.354;8.528;2023-04-03T11:06:50;9.40;57.90
4578;DHT22;2301;47.354;8.528;2023-04-03T11:09:23;9.40;57.20
4578;DHT22;2301;47.354;8.528;2023-04-03T11:11:55;9.40;56.80
4578;DHT22;2301;47.354;8.528;2023-04-03T11:14:26;9.40;56.60
4578;DHT22;2301;47.354;8.528;2023-04-03T11:17:11;9.50;56.70
4578;DHT22;2301;47.354;8.528;2023-04-03T11:19:42;9.50;56.80
4578;DHT22;2301;47.354;8.528;2023-04-03T11:22:16;9.70;57.00
4578;DHT22;2301;47.354;8.528;2023-04-03T11:24:55;9.60;56.60
4578;DHT22;2301;47.354;8.528;2023-04-03T11:27:24;9.60;56.60
4578;DHT22;2301;47.354;8.528;2023-04-03T11:29:53;9.60;57.00
4578;DHT22;2301;47.354;8.528;2023-04-03T11:35:26;9.60;57.30
4578;DHT22;2301;47.354;8.528;2023-04-03T11:37:54;9.60;57.40
4578;DHT22;2301;47.354;8.528;2023-04-03T11:40:25;9.60;57.40
4578;DHT22;2301;47.354;8.528;2023-04-03T11:42:55;9.60;57.60
4578;DHT22;2301;47.354;8.528;2023-04-03T11:45:35;9.70;57.80
4578;DHT22;2301;47.354;8.528;2023-04-03T11:48:05;9.70;57.80
4578;DHT22;2301;47.354;8.528;2023-04-03T11:50:44;9.80;57.70
4578;DHT22;2301;47.354;8.528;2023-04-03T11:53:33;9.70;56.80
4578;DHT22;2301;47.354;8.528;2023-04-03T11:59:21;9.70;56.80
4578;DHT22;2301;47.354;8.528;2023-04-03T12:01:50;9.70;56.50
4578;DHT22;2301;47.354;8.528;2023-04-03T12:04:20;9.70;56.40
4578;DHT22;2301;47.354;8.528;2023-04-03T12:07:02;9.60;56.40
4578;DHT22;2301;47.354;8.528;2023-04-03T12:09:34;9.60;56.80
4578;DHT22;2301;47.354;8.528;2023-04-03T12:12:32;9.70;57.00
4578;DHT22;2301;47.354;8.528;2023-04-03T12:15:20;9.70;57.20
4578;DHT22;2301;47.354;8.528;2023-04-03T12:17:47;9.70;57.00
4578;DHT22;2301;47.354;8.528;2023-04-03T12:20:58;9.70;57.20
4578;DHT22;2301;47.354;8.528;2023-04-03T12:23:30;9.60;57.30
4578;DHT22;2301;47.354;8.528;2023-04-03T12:26:18;9.70;57.60
4578;DHT22;2301;47.354;8.528;2023-04-03T12:28:48;9.80;57.80
4578;DHT22;2301;47.354;8.528;2023-04-03T12:31:16;9.60;57.40
4578;DHT22;2301;47.354;8.528;2023-04-03T12:36:59;9.60;57.50
4578;DHT22;2301;47.354;8.528;2023-04-03T12:39:47;9.60;57.20
4578;DHT22;2301;47.354;8.528;2023-04-03T12:42:38;9.60;56.90
4578;DHT22;2301;47.354;8.528;2023-04-03T12:45:15;9.60;57.30
4578;DHT22;2301;47.354;8.528;2023-04-03T12:47:45;9.60;56.80
4578;DHT22;2301;47.354;8.528;2023-04-03T12:50:21;9.60;56.90
4578;DHT22;2301;47.354;8.528;2023-04-03T12:52:57;9.70;57.30
4578;DHT22;2301;47.354;8.528;2023-04-03T12:55:25;9.70;57.50
4578;DHT22;2301;47.354;8.528;2023-04-03T12:57:53;9.70;57.10
4578;DHT22;2301;47.354;8.528;2023-04-03T13:00:29;9.60;57.10
4578;DHT22;2301;47.354;8.528;2023-04-03T13:02:58;9.70;56.80
4578;DHT22;2301;47.354;8.528;2023-04-03T13:05:25;9.90;56.70
4578;DHT22;2301;47.354;8.528;2023-04-03T13:07:58;9.80;56.60
4578;DHT22;2301;47.354;8.528;2023-04-03T13:10:25;9.80;56.50
4578;DHT22;2301;47.354;8.528;2023-04-03T13:12:54;9.80;56.30
4578;DHT22;2301;47.354;8.528;2023-04-03T13:15:25;9.80;56.30
4578;DHT22;2301;47.354;8.528;2023-04-03T13:17:52;9.80;56.20
4578;DHT22;2301;47.354;8.528;2023-04-03T13:20:23;9.80;56.70
4578;DHT22;2301;47.354;8.528;2023-04-03T13:22:55;9.80;56.00
4578;DHT22;2301;47.354;8.528;2023-04-03T13:25:25;9.80;55.70
4578;DHT22;2301;47.354;8.528;2023-04-03T13:27:53;9.80;55.20
4578;DHT22;2301;47.354;8.528;2023-04-03T13:30:24;9.80;55.20
4578;DHT22;2301;47.354;8.528;2023-04-03T13:32:52;9.80;54.90
4578;DHT22;2301;47.354;8.528;2023-04-03T13:35:28;9.80;55.20
4578;DHT22;2301;47.354;8.528;2023-04-03T13:38:00;9.90;55.40
4578;DHT22;2301;47.354;8.528;2023-04-03T13:40:27;10.00;54.70
4578;DHT22;2301;47.354;8.528;2023-04-03T13:43:03;10.10;55.00
4578;DHT22;2301;47.354;8.528;2023-04-03T13:45:32;10.10;54.50
4578;DHT22;2301;47.354;8.528;2023-04-03T13:48:16;10.10;54.10
4578;DHT22;2301;47.354;8.528;2023-04-03T13:50:54;10.20;54.40
4578;DHT22;2301;47.354;8.528;2023-04-03T13:53:23;10.10;54.10
4578;DHT22;2301;47.354;8.528;2023-04-03T13:55:57;10.10;53.60
4578;DHT22;2301;47.354;8.528;2023-04-03T13:58:25;10.10;53.40
4578;DHT22;2301;47.354;8.528;2023-04-03T14:01:00;10.00;52.50
4578;DHT22;2301;47.354;8.528;2023-04-03T14:03:42;10.00;52.60
4578;DHT22;2301;47.354;8.528;2023-04-03T14:06:14;9.90;54.00
4578;DHT22;2301;47.354;8.528;2023-04-03T14:08:43;9.90;54.20
4578;DHT22;2301;47.354;8.528;2023-04-03T14:11:15;9.90;54.60
4578;DHT22;2301;47.354;8.528;2023-04-03T14:13:43;9.90;55.00
4578;DHT22;2301;47.354;8.528;2023-04-03T14:16:14;10.00;54.50
4578;DHT22;2301;47.354;8.528;2023-04-03T14:18:42;9.90;55.80
4578;DHT22;2301;47.354;8.528;2023-04-03T14:21:11;9.90;55.10
4578;DHT22;2301;47.354;8.528;2023-04-03T14:23:38;9.80;55.20
4578;DHT22;2301;47.354;8.528;2023-04-03T14:26:10;10.00;54.50
4578;DHT22;2301;47.354;8.528;2023-04-03T14:28:38;9.90;55.40
4578;DHT22;2301;47.354;8.528;2023-04-03T14:31:06;9.70;54.90
4578;DHT22;2301;47.354;8.528;2023-04-03T14:33:33;9.80;55.00
4578;DHT22;2301;47.354;8.528;2023-04-03T14:36:01;9.70;55.60
4578;DHT22;2301;47.354;8.528;2023-04-03T14:38:30;9.70;54.90
4578;DHT22;2301;47.354;8.528;2023-04-03T14:40:58;9.60;55.00
4578;DHT22;2301;47.354;8.528;2023-04-03T14:43:26;9.70;55.30
4578;DHT22;2301;47.354;8.528;2023-04-03T14:45:53;9.60;55.10
4578;DHT22;2301;47.354;8.528;2023-04-03T14:48:22;9.70;55.10
4578;DHT22;2301;47.354;8.528;2023-04-03T14:50:51;9.60;55.00
4578;DHT22;2301;47.354;8.528;2023-04-03T14:53:19;9.60;54.90
4578;DHT22;2301;47.354;8.528;2023-04-03T14:55:50;9.50;54.50
4578;DHT22;2301;47.354;8.528;2023-04-03T14:58:19;9.50;54.70
4578;DHT22;2301;47.354;8.528;2023-04-03T15:00:50;9.50;54.60
4578;DHT22;2301;47.354;8.528;2023-04-03T15:03:19;9.40;54.60
4578;DHT22;2301;47.354;8.528;2023-04-03T15:05:47;9.30;54.80
4578;DHT22;2301;47.354;8.528;2023-04-03T15:08:21;9.40;55.00
4578;DHT22;2301;47.354;8.528;2023-04-03T15:10:49;9.40;55.10
4578;DHT22;2301;47.354;8.528;2023-04-03T15:13:19;9.40;55.20
4578;DHT22;2301;47.354;8.528;2023-04-03T15:15:46;9.40;55.10
4578;DHT22;2301;47.354;8.528;2023-04-03T15:18:17;9.50;55.00
4578;DHT22;2301;47.354;8.528;2023-04-03T15:20:45;9.40;54.70
4578;DHT22;2301;47.354;8.528;2023-04-03T15:23:15;9.40;54.70
4578;DHT22;2301;47.354;8.528;2023-04-03T15:25:42;9.40;54.70
4578;DHT22;2301;47.354;8.528;2023-04-03T15:28:18;9.50;54.80
4578;DHT22;2301;47.354;8.528;2023-04-03T15:30:46;9.40;54.60
4578;DHT22;2301;47.354;8.528;2023-04-03T15:33:14;9.40;53.80
4578;DHT22;2301;47.354;8.528;2023-04-03T15:35:42;9.40;53.90
4578;DHT22;2301;47.354;8.528;2023-04-03T15:38:09;9.40;54.00
4578;DHT22;2301;47.354;8.528;2023-04-03T15:40:37;9.40;53.40
4578;DHT22;2301;47.354;8.528;2023-04-03T15:43:05;9.40;53.60
4578;DHT22;2301;47.354;8.528;2023-04-03T15:45:34;9.40;53.80
4578;DHT22;2301;47.354;8.528;2023-04-03T15:48:02;9.40;53.60
4578;DHT22;2301;47.354;8.528;2023-04-03T15:50:32;9.50;53.90
4578;DHT22;2301;47.354;8.528;2023-04-03T15:53:00;9.50;54.00
4578;DHT22;2301;47.354;8.528;2023-04-03T15:55:38;9.40;53.70
4578;DHT22;2301;47.354;8.528;2023-04-03T15:58:08;9.50;53.80
4578;DHT22;2301;47.354;8.528;2023-04-03T16:00:36;9.50;53.90
4578;DHT22;2301;47.354;8.528;2023-04-03T16:03:05;9.50;54.00
4578;DHT22;2301;47.354;8.528;2023-04-03T16:05:36;9.50;53.70
4578;DHT22;2301;47.354;8.528;2023-04-03T16:08:05;9.40;53.20
4578;DHT22;2301;47.354;8.528;2023-04-03T16:10:33;9.40;53.30
4578;DHT22;2301;47.354;8.528;2023-04-03T16:13:03;9.30;53.70
4578;DHT22;2301;47.354;8.528;2023-04-03T16:15:31;9.30;53.70
4578;DHT22;2301;47.354;8.528;2023-04-03T16:17:58;9.30;53.60
4578;DHT22;2301;47.354;8.528;2023-04-03T16:20:26;9.30;54.00
4578;DHT22;2301;47.354;8.528;2023-04-03T16:22:56;9.20;53.80
4578;DHT22;2301;47.354;8.528;2023-04-03T16:25:24;9.20;53.70
4578;DHT22;2301;47.354;8.528;2023-04-03T16:27:52;9.20;53.60
4578;DHT22;2301;47.354;8.528;2023-04-03T16:30:19;9.10;53.10
4578;DHT22;2301;47.354;8.528;2023-04-03T16:32:47;9.10;52.90
4578;DHT22;2301;47.354;8.528;2023-04-03T16:35:19;9.10;53.20
4578;DHT22;2301;47.354;8.528;2023-04-03T16:37:49;9.10;53.50
4578;DHT22;2301;47.354;8.528;2023-04-03T16:40:17;9.10;53.80
4578;DHT22;2301;47.354;8.528;2023-04-03T16:42:44;9.10;53.50